sensor_id;sensor_type;location;lat;lon;timestamp;P1;durP1;ratioP1;P2;durP2;ratioP2
46022;SDS011;31756;47.936;16.224;2022-11-20T01:56:01;29.63;;;14.53;;
46022;SDS011;31756;47.936;16.224;2022-11-20T01:58:32;28.07;;;14.83;;
46022;SDS011;31756;47.936;16.224;2022-11-20T02:01:00;30.70;;;15.47;;
46022;SDS011;31756;47.936;16.224;2022-11-20T02:03:27;26.03;;;14.37;;
46022;SDS011;31756;47.936;16.224;2022-11-20T02:08:25;29.40;;;13.73;;
46022;SDS011;31756;47.936;16.224;2022-11-20T02:10:50;29.43;;;14.60;;
46022;SDS011;31756;47.936;16.224;2022-11-20T02:13:16;26.53;;;15.13;;
46022;SDS011;31756;47.936;16.224;2022-11-20T02:16:01;29.80;;;15.10;;
46022;SDS011;31756;47.936;16.224;2022-11-20T02:18:27;29.47;;;15.33;;
46022;SDS011;31756;47.936;16.224;2022-11-20T02:20:59;32.47;;;17.43;;
46022;SDS011;31756;47.936;16.224;2022-11-20T02:23:32;26.77;;;14.03;;
46022;SDS011;31756;47.936;16.224;2022-11-20T02:26:03;26.73;;;14.13;;
46022;SDS011;31756;47.936;16.224;2022-11-20T02:28:32;29.13;;;14.67;;
46022;SDS011;31756;47.936;16.224;2022-11-20T02:30:57;27.03;;;16.00;;
46022;SDS011;31756;47.936;16.224;2022-11-20T02:33:23;31.40;;;14.80;;
46022;SDS011;31756;47.936;16.224;2022-11-20T02:35:49;29.27;;;15.13;;
46022;SDS011;31756;47.936;16.224;2022-11-20T02:38:15;29.00;;;16.27;;
46022;SDS011;31756;47.936;16.224;2022-11-20T02:40:40;27.90;;;15.43;;
46022;SDS011;31756;47.936;16.224;2022-11-20T02:43:07;34.60;;;15.70;;
46022;SDS011;31756;47.936;16.224;2022-11-20T02:45:33;28.03;;;15.33;;
46022;SDS011;31756;47.936;16.224;2022-11-20T02:47:59;31.93;;;15.83;;
46022;SDS011;31756;47.936;16.224;2022-11-20T02:50:25;29.60;;;14.60;;
46022;SDS011;31756;47.936;16.224;2022-11-20T02:52:50;29.00;;;14.97;;
46022;SDS011;31756;47.936;16.224;2022-11-20T02:55:16;32.57;;;16.73;;
46022;SDS011;31756;47.936;16.224;2022-11-20T02:57:41;31.20;;;15.50;;
46022;SDS011;31756;47.936;16.224;2022-11-20T03:00:07;32.63;;;17.30;;
46022;SDS011;31756;47.936;16.224;2022-11-20T03:02:33;34.73;;;17.80;;
46022;SDS011;31756;47.936;16.224;2022-11-20T03:04:59;28.27;;;16.37;;
46022;SDS011;31756;47.936;16.224;2022-11-20T03:07:24;32.53;;;16.23;;
46022;SDS011;31756;47.936;16.224;2022-11-20T03:09:50;30.93;;;16.43;;
46022;SDS011;31756;47.936;16.224;2022-11-20T03:12:15;30.17;;;17.17;;
46022;SDS011;31756;47.936;16.224;2022-11-20T03:14:41;27.83;;;14.87;;
46022;SDS011;31756;47.936;16.224;2022-11-20T03:17:07;28.67;;;15.47;;
46022;SDS011;31756;47.936;16.224;2022-11-20T03:19:33;30.90;;;16.63;;
46022;SDS011;31756;47.936;16.224;2022-11-20T03:21:59;30.03;;;15.77;;
46022;SDS011;31756;47.936;16.224;2022-11-20T03:24:25;30.77;;;14.73;;
46022;SDS011;31756;47.936;16.224;2022-11-20T03:26:51;31.17;;;16.90;;
46022;SDS011;31756;47.936;16.224;2022-11-20T03:29:16;33.30;;;15.67;;
46022;SDS011;31756;47.936;16.224;2022-11-20T03:31:42;33.43;;;16.50;;
46022;SDS011;31756;47.936;16.224;2022-11-20T03:34:09;30.47;;;16.23;;
46022;SDS011;31756;47.936;16.224;2022-11-20T03:36:39;28.57;;;14.57;;
46022;SDS011;31756;47.936;16.224;2022-11-20T03:39:06;33.63;;;17.43;;
46022;SDS011;31756;47.936;16.224;2022-11-20T03:41:35;32.87;;;17.37;;
46022;SDS011;31756;47.936;16.224;2022-11-20T03:44:02;34.60;;;17.13;;
46022;SDS011;31756;47.936;16.224;2022-11-20T03:46:30;30.33;;;15.30;;
46022;SDS011;31756;47.936;16.224;2022-11-20T03:48:56;32.07;;;16.50;;
46022;SDS011;31756;47.936;16.224;2022-11-20T03:51:32;30.87;;;16.97;;
46022;SDS011;31756;47.936;16.224;2022-11-20T03:53:59;30.43;;;15.80;;
46022;SDS011;31756;47.936;16.224;2022-11-20T03:56:27;31.80;;;16.33;;
46022;SDS011;31756;47.936;16.224;2022-11-20T03:58:54;32.23;;;17.83;;
46022;SDS011;31756;47.936;16.224;2022-11-20T04:01:24;33.13;;;16.03;;
46022;SDS011;31756;47.936;16.224;2022-11-20T04:03:52;30.63;;;15.10;;
46022;SDS011;31756;47.936;16.224;2022-11-20T04:06:20;28.87;;;16.23;;
46022;SDS011;31756;47.936;16.224;2022-11-20T04:08:47;33.73;;;16.73;;
46022;SDS011;31756;47.936;16.224;2022-11-20T04:11:14;32.33;;;15.43;;
46022;SDS011;31756;47.936;16.224;2022-11-20T04:13:42;32.60;;;16.73;;
46022;SDS011;31756;47.936;16.224;2022-11-20T04:16:10;25.87;;;14.60;;
46022;SDS011;31756;47.936;16.224;2022-11-20T04:18:36;33.50;;;17.50;;
46022;SDS011;31756;47.936;16.224;2022-11-20T04:21:02;30.80;;;15.27;;
46022;SDS011;31756;47.936;16.224;2022-11-20T04:23:28;27.73;;;15.07;;
46022;SDS011;31756;47.936;16.224;2022-11-20T04:25:54;33.13;;;15.97;;
46022;SDS011;31756;47.936;16.224;2022-11-20T04:28:26;34.27;;;17.63;;
46022;SDS011;31756;47.936;16.224;2022-11-20T04:30:52;32.80;;;16.80;;
46022;SDS011;31756;47.936;16.224;2022-11-20T04:33:17;31.97;;;16.63;;
46022;SDS011;31756;47.936;16.224;2022-11-20T04:35:43;29.20;;;16.03;;
46022;SDS011;31756;47.936;16.224;2022-11-20T04:38:11;30.23;;;16.17;;
46022;SDS011;31756;47.936;16.224;2022-11-20T04:40:38;30.20;;;15.53;;
46022;SDS011;31756;47.936;16.224;2022-11-20T04:43:03;31.33;;;15.30;;
46022;SDS011;31756;47.936;16.224;2022-11-20T04:45:29;34.70;;;15.67;;
46022;SDS011;31756;47.936;16.224;2022-11-20T04:47:54;30.33;;;16.80;;
46022;SDS011;31756;47.936;16.224;2022-11-20T04:50:20;31.23;;;14.67;;
46022;SDS011;31756;47.936;16.224;2022-11-20T04:52:45;28.13;;;14.47;;
46022;SDS011;31756;47.936;16.224;2022-11-20T04:55:11;30.87;;;16.77;;
46022;SDS011;31756;47.936;16.224;2022-11-20T04:57:36;30.07;;;16.20;;
46022;SDS011;31756;47.936;16.224;2022-11-20T05:00:03;30.03;;;15.50;;
46022;SDS011;31756;47.936;16.224;2022-11-20T05:02:30;30.23;;;15.47;;
46022;SDS011;31756;47.936;16.224;2022-11-20T05:04:56;30.70;;;16.60;;
46022;SDS011;31756;47.936;16.224;2022-11-20T05:07:21;34.07;;;16.20;;
46022;SDS011;31756;47.936;16.224;2022-11-20T05:09:47;31.47;;;16.07;;
46022;SDS011;31756;47.936;16.224;2022-11-20T05:12:12;29.53;;;15.87;;
46022;SDS011;31756;47.936;16.224;2022-11-20T05:14:38;36.07;;;16.10;;
46022;SDS011;31756;47.936;16.224;2022-11-20T05:17:03;32.53;;;16.07;;
46022;SDS011;31756;47.936;16.224;2022-11-20T05:19:29;34.83;;;17.17;;
46022;SDS011;31756;47.936;16.224;2022-11-20T05:21:55;30.47;;;16.03;;
46022;SDS011;31756;47.936;16.224;2022-11-20T05:24:20;32.60;;;16.00;;
46022;SDS011;31756;47.936;16.224;2022-11-20T05:26:46;34.50;;;18.63;;
46022;SDS011;31756;47.936;16.224;2022-11-20T05:29:12;29.13;;;16.60;;
46022;SDS011;31756;47.936;16.224;2022-11-20T05:31:38;36.40;;;17.23;;
46022;SDS011;31756;47.936;16.224;2022-11-20T05:34:05;33.27;;;16.60;;
46022;SDS011;31756;47.936;16.224;2022-11-20T05:36:32;45.60;;;22.27;;
46022;SDS011;31756;47.936;16.224;2022-11-20T05:38:57;45.57;;;22.73;;
46022;SDS011;31756;47.936;16.224;2022-11-20T05:41:23;39.77;;;19.03;;
46022;SDS011;31756;47.936;16.224;2022-11-20T05:43:49;36.70;;;18.30;;
46022;SDS011;31756;47.936;16.224;2022-11-20T05:46:17;41.33;;;21.50;;
46022;SDS011;31756;47.936;16.224;2022-11-20T05:48:44;38.00;;;19.70;;
46022;SDS011;31756;47.936;16.224;2022-11-20T05:51:11;34.77;;;20.03;;
46022;SDS011;31756;47.936;16.224;2022-11-20T05:53:39;36.10;;;20.57;;
46022;SDS011;31756;47.936;16.224;2022-11-20T05:56:15;34.30;;;19.50;;
46022;SDS011;31756;47.936;16.224;2022-11-20T05:58:43;41.77;;;21.00;;
46022;SDS011;31756;47.936;16.224;2022-11-20T06:01:13;39.07;;;20.47;;
46022;SDS011;31756;47.936;16.224;2022-11-20T06:03:43;39.73;;;20.03;;
46022;SDS011;31756;47.936;16.224;2022-11-20T06:06:13;36.17;;;17.93;;
46022;SDS011;31756;47.936;16.224;2022-11-20T06:08:39;37.90;;;18.57;;
46022;SDS011;31756;47.936;16.224;2022-11-20T06:11:06;33.83;;;18.77;;
46022;SDS011;31756;47.936;16.224;2022-11-20T06:13:34;35.47;;;17.50;;
46022;SDS011;31756;47.936;16.224;2022-11-20T06:16:00;36.83;;;18.77;;
46022;SDS011;31756;47.936;16.224;2022-11-20T06:18:26;36.27;;;19.67;;
46022;SDS011;31756;47.936;16.224;2022-11-20T06:21:00;32.17;;;15.70;;
46022;SDS011;31756;47.936;16.224;2022-11-20T06:23:28;33.00;;;16.48;;
46022;SDS011;31756;47.936;16.224;2022-11-20T06:25:55;32.97;;;17.03;;
46022;SDS011;31756;47.936;16.224;2022-11-20T06:28:21;36.77;;;18.97;;
46022;SDS011;31756;47.936;16.224;2022-11-20T06:30:47;35.63;;;18.67;;
46022;SDS011;31756;47.936;16.224;2022-11-20T06:33:12;42.40;;;18.50;;
46022;SDS011;31756;47.936;16.224;2022-11-20T06:35:38;30.73;;;16.47;;
46022;SDS011;31756;47.936;16.224;2022-11-20T06:38:03;30.60;;;15.57;;
46022;SDS011;31756;47.936;16.224;2022-11-20T06:40:29;40.67;;;18.30;;
46022;SDS011;31756;47.936;16.224;2022-11-20T06:42:54;33.93;;;18.67;;
46022;SDS011;31756;47.936;16.224;2022-11-20T06:45:21;34.37;;;18.20;;
46022;SDS011;31756;47.936;16.224;2022-11-20T06:47:46;35.33;;;17.57;;
46022;SDS011;31756;47.936;16.224;2022-11-20T06:50:12;33.87;;;16.80;;
46022;SDS011;31756;47.936;16.224;2022-11-20T06:52:38;33.73;;;18.27;;
46022;SDS011;31756;47.936;16.224;2022-11-20T06:55:05;32.83;;;17.00;;
46022;SDS011;31756;47.936;16.224;2022-11-20T06:57:31;32.07;;;16.07;;
46022;SDS011;31756;47.936;16.224;2022-11-20T06:59:57;30.23;;;16.23;;
46022;SDS011;31756;47.936;16.224;2022-11-20T07:02:22;32.20;;;15.73;;
46022;SDS011;31756;47.936;16.224;2022-11-20T07:04:48;34.27;;;18.57;;
46022;SDS011;31756;47.936;16.224;2022-11-20T07:07:13;33.47;;;16.60;;
46022;SDS011;31756;47.936;16.224;2022-11-20T07:09:39;35.27;;;17.77;;
46022;SDS011;31756;47.936;16.224;2022-11-20T07:12:05;31.57;;;15.90;;
46022;SDS011;31756;47.936;16.224;2022-11-20T07:14:31;28.63;;;15.53;;
46022;SDS011;31756;47.936;16.224;2022-11-20T07:16:56;28.63;;;15.77;;
46022;SDS011;31756;47.936;16.224;2022-11-20T07:19:22;34.37;;;16.27;;
46022;SDS011;31756;47.936;16.224;2022-11-20T07:21:47;28.30;;;14.80;;
46022;SDS011;31756;47.936;16.224;2022-11-20T07:24:13;34.03;;;18.30;;
46022;SDS011;31756;47.936;16.224;2022-11-20T07:26:38;34.10;;;16.90;;
46022;SDS011;31756;47.936;16.224;2022-11-20T07:29:05;32.33;;;16.40;;
46022;SDS011;31756;47.936;16.224;2022-11-20T07:31:31;76.03;;;29.13;;
46022;SDS011;31756;47.936;16.224;2022-11-20T07:33:56;35.83;;;18.77;;
46022;SDS011;31756;47.936;16.224;2022-11-20T07:36:22;36.17;;;17.43;;
46022;SDS011;31756;47.936;16.224;2022-11-20T07:38:48;75.13;;;25.83;;
46022;SDS011;31756;47.936;16.224;2022-11-20T07:41:14;128.00;;;43.00;;
46022;SDS011;31756;47.936;16.224;2022-11-20T07:43:40;44.27;;;21.23;;
46022;SDS011;31756;47.936;16.224;2022-11-20T07:46:05;30.93;;;15.90;;
46022;SDS011;31756;47.936;16.224;2022-11-20T07:48:31;33.10;;;16.77;;
46022;SDS011;31756;47.936;16.224;2022-11-20T07:50:57;34.07;;;17.83;;
46022;SDS011;31756;47.936;16.224;2022-11-20T07:53:23;30.27;;;16.93;;
46022;SDS011;31756;47.936;16.224;2022-11-20T07:55:49;42.60;;;22.00;;
46022;SDS011;31756;47.936;16.224;2022-11-20T07:58:18;217.10;;;74.97;;
46022;SDS011;31756;47.936;16.224;2022-11-20T08:00:45;88.67;;;34.67;;
46022;SDS011;31756;47.936;16.224;2022-11-20T08:03:10;45.50;;;21.60;;
46022;SDS011;31756;47.936;16.224;2022-11-20T08:05:36;39.40;;;19.17;;
46022;SDS011;31756;47.936;16.224;2022-11-20T08:08:02;32.77;;;18.17;;
46022;SDS011;31756;47.936;16.224;2022-11-20T08:10:28;34.07;;;16.37;;
46022;SDS011;31756;47.936;16.224;2022-11-20T08:12:53;31.07;;;17.47;;
46022;SDS011;31756;47.936;16.224;2022-11-20T08:15:38;34.77;;;17.77;;
46022;SDS011;31756;47.936;16.224;2022-11-20T08:18:05;29.30;;;16.30;;
46022;SDS011;31756;47.936;16.224;2022-11-20T08:20:33;32.20;;;16.00;;
46022;SDS011;31756;47.936;16.224;2022-11-20T08:23:00;35.87;;;17.80;;
46022;SDS011;31756;47.936;16.224;2022-11-20T08:25:28;36.10;;;17.90;;
46022;SDS011;31756;47.936;16.224;2022-11-20T08:28:01;36.47;;;18.43;;
46022;SDS011;31756;47.936;16.224;2022-11-20T08:30:29;34.65;;;19.10;;
46022;SDS011;31756;47.936;16.224;2022-11-20T08:32:59;36.70;;;18.10;;
46022;SDS011;31756;47.936;16.224;2022-11-20T08:35:27;30.57;;;17.33;;
46022;SDS011;31756;47.936;16.224;2022-11-20T08:37:52;35.80;;;17.50;;
46022;SDS011;31756;47.936;16.224;2022-11-20T08:40:18;31.63;;;16.47;;
46022;SDS011;31756;47.936;16.224;2022-11-20T08:42:47;33.40;;;17.60;;
46022;SDS011;31756;47.936;16.224;2022-11-20T08:45:14;30.73;;;17.23;;
46022;SDS011;31756;47.936;16.224;2022-11-20T08:47:43;29.63;;;16.97;;
46022;SDS011;31756;47.936;16.224;2022-11-20T08:50:09;34.37;;;17.10;;
46022;SDS011;31756;47.936;16.224;2022-11-20T08:52:36;36.03;;;17.80;;
46022;SDS011;31756;47.936;16.224;2022-11-20T08:55:02;35.43;;;17.60;;
46022;SDS011;31756;47.936;16.224;2022-11-20T08:57:31;33.80;;;19.60;;
46022;SDS011;31756;47.936;16.224;2022-11-20T08:59:58;34.57;;;18.23;;
46022;SDS011;31756;47.936;16.224;2022-11-20T09:02:24;35.70;;;18.30;;
46022;SDS011;31756;47.936;16.224;2022-11-20T09:04:50;31.00;;;15.90;;
46022;SDS011;31756;47.936;16.224;2022-11-20T09:07:16;30.50;;;15.53;;
46022;SDS011;31756;47.936;16.224;2022-11-20T09:09:41;32.77;;;17.93;;
46022;SDS011;31756;47.936;16.224;2022-11-20T09:12:07;28.37;;;15.97;;
46022;SDS011;31756;47.936;16.224;2022-11-20T09:14:32;29.77;;;16.77;;
46022;SDS011;31756;47.936;16.224;2022-11-20T09:16:59;32.13;;;19.23;;
46022;SDS011;31756;47.936;16.224;2022-11-20T09:19:24;32.60;;;18.17;;
46022;SDS011;31756;47.936;16.224;2022-11-20T09:21:50;32.73;;;17.47;;
46022;SDS011;31756;47.936;16.224;2022-11-20T09:24:16;37.63;;;19.57;;
46022;SDS011;31756;47.936;16.224;2022-11-20T09:26:43;35.73;;;19.73;;
46022;SDS011;31756;47.936;16.224;2022-11-20T09:29:09;33.13;;;17.40;;
46022;SDS011;31756;47.936;16.224;2022-11-20T09:31:34;33.87;;;17.63;;
46022;SDS011;31756;47.936;16.224;2022-11-20T09:34:00;36.93;;;20.10;;
46022;SDS011;31756;47.936;16.224;2022-11-20T09:36:25;33.60;;;18.97;;
46022;SDS011;31756;47.936;16.224;2022-11-20T09:38:51;37.63;;;19.30;;
46022;SDS011;31756;47.936;16.224;2022-11-20T09:44:10;35.20;;;19.50;;
46022;SDS011;31756;47.936;16.224;2022-11-20T09:47:01;38.53;;;20.10;;
46022;SDS011;31756;47.936;16.224;2022-11-20T09:52:37;37.53;;;19.07;;
46022;SDS011;31756;47.936;16.224;2022-11-20T09:55:22;41.80;;;21.43;;
46022;SDS011;31756;47.936;16.224;2022-11-20T09:57:50;37.30;;;20.07;;
46022;SDS011;31756;47.936;16.224;2022-11-20T10:00:17;40.47;;;20.93;;
46022;SDS011;31756;47.936;16.224;2022-11-20T10:05:19;39.47;;;20.33;;
46022;SDS011;31756;47.936;16.224;2022-11-20T10:08:20;36.30;;;20.73;;
46022;SDS011;31756;47.936;16.224;2022-11-20T10:24:42;39.47;;;20.27;;
46022;SDS011;31756;47.936;16.224;2022-11-20T10:27:21;40.50;;;21.10;;
46022;SDS011;31756;47.936;16.224;2022-11-20T10:35:45;37.10;;;20.67;;
46022;SDS011;31756;47.936;16.224;2022-11-20T10:38:22;41.80;;;20.50;;
46022;SDS011;31756;47.936;16.224;2022-11-20T10:40:55;36.80;;;19.27;;
46022;SDS011;31756;47.936;16.224;2022-11-20T10:43:44;37.23;;;20.50;;
46022;SDS011;31756;47.936;16.224;2022-11-20T10:46:14;36.67;;;18.57;;
46022;SDS011;31756;47.936;16.224;2022-11-20T10:48:43;35.70;;;18.83;;
46022;SDS011;31756;47.936;16.224;2022-11-20T10:56:27;33.90;;;19.40;;
46022;SDS011;31756;47.936;16.224;2022-11-20T11:01:43;33.33;;;18.57;;
46022;SDS011;31756;47.936;16.224;2022-11-20T11:04:18;32.60;;;18.57;;
46022;SDS011;31756;47.936;16.224;2022-11-20T11:07:30;39.03;;;18.97;;
46022;SDS011;31756;47.936;16.224;2022-11-20T11:10:01;35.70;;;17.70;;
46022;SDS011;31756;47.936;16.224;2022-11-20T11:12:47;32.90;;;20.23;;
46022;SDS011;31756;47.936;16.224;2022-11-20T11:15:56;32.37;;;19.90;;
46022;SDS011;31756;47.936;16.224;2022-11-20T11:18:05;31.53;;;17.63;;
46022;SDS011;31756;47.936;16.224;2022-11-20T11:20:35;30.77;;;17.40;;
46022;SDS011;31756;47.936;16.224;2022-11-20T11:23:01;33.00;;;18.10;;
46022;SDS011;31756;47.936;16.224;2022-11-20T11:30:29;36.80;;;18.10;;
46022;SDS011;31756;47.936;16.224;2022-11-20T11:33:06;31.13;;;18.17;;
46022;SDS011;31756;47.936;16.224;2022-11-20T11:35:39;31.57;;;17.97;;
46022;SDS011;31756;47.936;16.224;2022-11-20T11:38:12;28.23;;;17.25;;
46022;SDS011;31756;47.936;16.224;2022-11-20T11:40:45;33.38;;;18.98;;
46022;SDS011;31756;47.936;16.224;2022-11-20T11:43:22;35.93;;;20.17;;
46022;SDS011;31756;47.936;16.224;2022-11-20T11:46:22;39.20;;;19.63;;
46022;SDS011;31756;47.936;16.224;2022-11-20T11:48:56;37.87;;;20.13;;
46022;SDS011;31756;47.936;16.224;2022-11-20T11:51:25;41.50;;;21.90;;
46022;SDS011;31756;47.936;16.224;2022-11-20T11:53:57;40.03;;;21.83;;
46022;SDS011;31756;47.936;16.224;2022-11-20T11:56:24;39.37;;;22.07;;
46022;SDS011;31756;47.936;16.224;2022-11-20T11:58:51;42.43;;;23.53;;
46022;SDS011;31756;47.936;16.224;2022-11-20T12:04:04;44.23;;;22.80;;
46022;SDS011;31756;47.936;16.224;2022-11-20T12:06:45;41.90;;;22.87;;
46022;SDS011;31756;47.936;16.224;2022-11-20T12:09:16;39.20;;;21.53;;
46022;SDS011;31756;47.936;16.224;2022-11-20T12:11:46;44.70;;;23.73;;
46022;SDS011;31756;47.936;16.224;2022-11-20T12:14:27;41.03;;;20.77;;
46022;SDS011;31756;47.936;16.224;2022-11-20T12:17:00;34.57;;;19.70;;
46022;SDS011;31756;47.936;16.224;2022-11-20T12:19:28;38.63;;;22.33;;
46022;SDS011;31756;47.936;16.224;2022-11-20T12:30:16;38.30;;;22.40;;
46022;SDS011;31756;47.936;16.224;2022-11-20T12:40:56;33.10;;;19.50;;
46022;SDS011;31756;47.936;16.224;2022-11-20T12:43:36;35.07;;;19.57;;
46022;SDS011;31756;47.936;16.224;2022-11-20T12:46:53;34.37;;;20.13;;
46022;SDS011;31756;47.936;16.224;2022-11-20T12:58:09;37.93;;;21.53;;
46022;SDS011;31756;47.936;16.224;2022-11-20T13:00:38;34.43;;;19.93;;
46022;SDS011;31756;47.936;16.224;2022-11-20T13:06:02;31.63;;;18.33;;
46022;SDS011;31756;47.936;16.224;2022-11-20T13:08:41;35.90;;;20.00;;
46022;SDS011;31756;47.936;16.224;2022-11-20T13:13:47;38.27;;;22.10;;
46022;SDS011;31756;47.936;16.224;2022-11-20T13:17:19;35.13;;;18.40;;
46022;SDS011;31756;47.936;16.224;2022-11-20T13:19:52;36.07;;;20.87;;
46022;SDS011;31756;47.936;16.224;2022-11-20T13:22:29;31.07;;;18.30;;
46022;SDS011;31756;47.936;16.224;2022-11-20T13:25:09;36.43;;;20.70;;
46022;SDS011;31756;47.936;16.224;2022-11-20T13:27:36;30.93;;;18.67;;
46022;SDS011;31756;47.936;16.224;2022-11-20T13:30:14;34.70;;;20.00;;
46022;SDS011;31756;47.936;16.224;2022-11-20T13:32:53;32.55;;;20.90;;
46022;SDS011;31756;47.936;16.224;2022-11-20T13:40:27;42.57;;;24.17;;
46022;SDS011;31756;47.936;16.224;2022-11-20T13:45:54;39.83;;;23.50;;
46022;SDS011;31756;47.936;16.224;2022-11-20T13:48:50;38.58;;;23.70;;
46022;SDS011;31756;47.936;16.224;2022-11-20T13:51:24;37.05;;;20.33;;
46022;SDS011;31756;47.936;16.224;2022-11-20T13:59:57;40.70;;;23.02;;
46022;SDS011;31756;47.936;16.224;2022-11-20T14:02:36;41.13;;;23.70;;
46022;SDS011;31756;47.936;16.224;2022-11-20T14:05:05;37.80;;;21.23;;
46022;SDS011;31756;47.936;16.224;2022-11-20T14:07:44;34.60;;;21.63;;
46022;SDS011;31756;47.936;16.224;2022-11-20T14:10:45;38.20;;;22.60;;
46022;SDS011;31756;47.936;16.224;2022-11-20T14:13:37;38.33;;;24.07;;
46022;SDS011;31756;47.936;16.224;2022-11-20T14:15:57;37.25;;;22.80;;
46022;SDS011;31756;47.936;16.224;2022-11-20T14:18:24;32.00;;;20.37;;
46022;SDS011;31756;47.936;16.224;2022-11-20T14:20:51;35.63;;;20.40;;
46022;SDS011;31756;47.936;16.224;2022-11-20T14:23:27;38.03;;;23.33;;
46022;SDS011;31756;47.936;16.224;2022-11-20T14:25:54;36.50;;;21.20;;
46022;SDS011;31756;47.936;16.224;2022-11-20T14:28:38;33.58;;;19.73;;
46022;SDS011;31756;47.936;16.224;2022-11-20T14:31:08;41.05;;;22.83;;
46022;SDS011;31756;47.936;16.224;2022-11-20T14:33:47;40.73;;;23.97;;
46022;SDS011;31756;47.936;16.224;2022-11-20T14:36:17;42.97;;;24.30;;
46022;SDS011;31756;47.936;16.224;2022-11-20T14:38:46;41.83;;;23.80;;
46022;SDS011;31756;47.936;16.224;2022-11-20T14:41:20;40.87;;;23.37;;
46022;SDS011;31756;47.936;16.224;2022-11-20T14:43:49;40.15;;;23.58;;
46022;SDS011;31756;47.936;16.224;2022-11-20T14:46:21;43.90;;;24.97;;
46022;SDS011;31756;47.936;16.224;2022-11-20T14:48:55;47.10;;;25.57;;
46022;SDS011;31756;47.936;16.224;2022-11-20T14:51:35;42.87;;;23.37;;
46022;SDS011;31756;47.936;16.224;2022-11-20T14:54:16;43.03;;;23.20;;
46022;SDS011;31756;47.936;16.224;2022-11-20T14:56:54;40.10;;;22.00;;
46022;SDS011;31756;47.936;16.224;2022-11-20T14:59:25;41.07;;;23.63;;
46022;SDS011;31756;47.936;16.224;2022-11-20T15:01:59;41.33;;;23.17;;
46022;SDS011;31756;47.936;16.224;2022-11-20T15:04:44;44.80;;;23.93;;
46022;SDS011;31756;47.936;16.224;2022-11-20T15:10:02;40.33;;;23.23;;
46022;SDS011;31756;47.936;16.224;2022-11-20T15:12:30;36.80;;;21.87;;
46022;SDS011;31756;47.936;16.224;2022-11-20T15:14:58;52.43;;;28.97;;
46022;SDS011;31756;47.936;16.224;2022-11-20T15:17:25;47.47;;;25.83;;
46022;SDS011;31756;47.936;16.224;2022-11-20T15:19:52;54.27;;;28.23;;
46022;SDS011;31756;47.936;16.224;2022-11-20T15:22:19;53.20;;;28.97;;
46022;SDS011;31756;47.936;16.224;2022-11-20T15:24:45;56.13;;;30.53;;
46022;SDS011;31756;47.936;16.224;2022-11-20T15:27:11;51.87;;;28.17;;
46022;SDS011;31756;47.936;16.224;2022-11-20T15:29:37;53.60;;;29.07;;
46022;SDS011;31756;47.936;16.224;2022-11-20T15:32:03;47.80;;;27.67;;
46022;SDS011;31756;47.936;16.224;2022-11-20T15:34:30;46.90;;;26.43;;
46022;SDS011;31756;47.936;16.224;2022-11-20T15:36:58;50.33;;;26.60;;
46022;SDS011;31756;47.936;16.224;2022-11-20T15:39:26;46.93;;;23.77;;
46022;SDS011;31756;47.936;16.224;2022-11-20T15:41:52;48.77;;;26.37;;
46022;SDS011;31756;47.936;16.224;2022-11-20T15:44:18;50.87;;;26.77;;
46022;SDS011;31756;47.936;16.224;2022-11-20T15:46:44;56.93;;;28.80;;
46022;SDS011;31756;47.936;16.224;2022-11-20T15:49:15;56.53;;;27.70;;
46022;SDS011;31756;47.936;16.224;2022-11-20T15:51:44;50.30;;;25.30;;
46022;SDS011;31756;47.936;16.224;2022-11-20T15:54:18;52.70;;;29.20;;
46022;SDS011;31756;47.936;16.224;2022-11-20T15:56:47;52.53;;;26.70;;
46022;SDS011;31756;47.936;16.224;2022-11-20T15:59:14;46.63;;;25.80;;
46022;SDS011;31756;47.936;16.224;2022-11-20T16:01:41;51.43;;;26.07;;
46022;SDS011;31756;47.936;16.224;2022-11-20T16:04:11;54.37;;;29.33;;
46022;SDS011;31756;47.936;16.224;2022-11-20T16:06:41;49.83;;;28.23;;
46022;SDS011;31756;47.936;16.224;2022-11-20T16:09:08;53.30;;;30.13;;
46022;SDS011;31756;47.936;16.224;2022-11-20T16:11:35;51.57;;;29.27;;
46022;SDS011;31756;47.936;16.224;2022-11-20T16:14:04;54.13;;;28.80;;
46022;SDS011;31756;47.936;16.224;2022-11-20T16:16:49;63.50;;;33.83;;
46022;SDS011;31756;47.936;16.224;2022-11-20T16:19:16;69.83;;;38.30;;
46022;SDS011;31756;47.936;16.224;2022-11-20T16:21:43;89.97;;;45.93;;
46022;SDS011;31756;47.936;16.224;2022-11-20T16:24:10;72.77;;;36.17;;
46022;SDS011;31756;47.936;16.224;2022-11-20T16:26:38;70.47;;;37.63;;
46022;SDS011;31756;47.936;16.224;2022-11-20T16:29:05;69.60;;;34.70;;
46022;SDS011;31756;47.936;16.224;2022-11-20T16:31:32;74.87;;;38.43;;
46022;SDS011;31756;47.936;16.224;2022-11-20T16:34:00;68.33;;;36.10;;
46022;SDS011;31756;47.936;16.224;2022-11-20T16:36:28;67.43;;;33.90;;
46022;SDS011;31756;47.936;16.224;2022-11-20T16:38:58;78.47;;;34.20;;
46022;SDS011;31756;47.936;16.224;2022-11-20T16:41:26;69.10;;;34.77;;
46022;SDS011;31756;47.936;16.224;2022-11-20T16:43:56;74.40;;;36.27;;
46022;SDS011;31756;47.936;16.224;2022-11-20T16:46:24;58.50;;;31.43;;
46022;SDS011;31756;47.936;16.224;2022-11-20T16:49:05;64.13;;;33.03;;
46022;SDS011;31756;47.936;16.224;2022-11-20T16:51:36;62.07;;;33.23;;
46022;SDS011;31756;47.936;16.224;2022-11-20T16:54:03;70.50;;;36.47;;
46022;SDS011;31756;47.936;16.224;2022-11-20T16:56:31;77.33;;;40.83;;
46022;SDS011;31756;47.936;16.224;2022-11-20T16:58:58;81.97;;;40.33;;
46022;SDS011;31756;47.936;16.224;2022-11-20T17:01:25;79.53;;;43.17;;
46022;SDS011;31756;47.936;16.224;2022-11-20T17:04:00;79.17;;;41.70;;
46022;SDS011;31756;47.936;16.224;2022-11-20T17:06:31;79.93;;;41.58;;
46022;SDS011;31756;47.936;16.224;2022-11-20T17:08:59;77.20;;;41.13;;
46022;SDS011;31756;47.936;16.224;2022-11-20T17:11:26;86.10;;;44.27;;
46022;SDS011;31756;47.936;16.224;2022-11-20T17:13:54;79.90;;;40.30;;
46022;SDS011;31756;47.936;16.224;2022-11-20T17:16:22;75.73;;;41.17;;
46022;SDS011;31756;47.936;16.224;2022-11-20T17:18:49;85.73;;;42.80;;
46022;SDS011;31756;47.936;16.224;2022-11-20T17:21:16;85.73;;;45.07;;
46022;SDS011;31756;47.936;16.224;2022-11-20T17:23:44;85.90;;;43.60;;
46022;SDS011;31756;47.936;16.224;2022-11-20T17:28:40;98.43;;;52.43;;
46022;SDS011;31756;47.936;16.224;2022-11-20T17:31:08;119.50;;;55.53;;
46022;SDS011;31756;47.936;16.224;2022-11-20T17:33:37;99.53;;;51.00;;
46022;SDS011;31756;47.936;16.224;2022-11-20T17:36:04;88.97;;;46.33;;
46022;SDS011;31756;47.936;16.224;2022-11-20T17:38:32;94.77;;;46.80;;
46022;SDS011;31756;47.936;16.224;2022-11-20T17:41:06;75.80;;;41.73;;
46022;SDS011;31756;47.936;16.224;2022-11-20T17:43:37;73.00;;;40.07;;
46022;SDS011;31756;47.936;16.224;2022-11-20T17:46:07;59.43;;;29.97;;
46022;SDS011;31756;47.936;16.224;2022-11-20T17:48:44;60.03;;;30.87;;
46022;SDS011;31756;47.936;16.224;2022-11-20T17:51:21;57.33;;;29.77;;
46022;SDS011;31756;47.936;16.224;2022-11-20T17:53:49;54.27;;;25.23;;